メインページ
METAR-TAF:

METAR-TAF

空港 :

プリンストン, ブリティッシュコロンビア州, カナダ

緯度: 49-28N, 経度: 120-31W, 海抜: 700m

現時点の気象観測

当レポートは1時間8分前の16:00(UTC)に作成
変向風 3kt
気温 16°C
湿度 55%
気圧 1021 hPa
視程: 24.1km
晴天

METAR: CYDC 211600Z VRB03KT 15SM SKC 16/07 A3015 RMK SLP203 DENSITY ALT 2700FT

時間: 10:08 (17:08 UTC)


TAF: 見つかりません

4,000以上の空港の気象観測と天気予報(METAR報とTAF報)

利用可能な観測所は地図上に黄色い丸と赤い丸で示す。

丸の上にカーソルを重ねると観測所名を参照できる。

次にクリックすると気象観測と天気予報を参照できる。

マップの切り替え:黒色「×」印の緑ボタンをクリックして拡大、「-」印の緑ボタンをクリックして縮小、緑色の三角印をクリックして隣りの地図に切り替え


METAR-TAF: